Time;durP1;ratioP1;P1;durP2;ratioP2;P2;SDS_P1;SDS_P2;PMS_P1;PMS_P2;Temp;Humidity;BMP_temperature;BMP_pressure;BME280_temperature;BME280_humidity;BME280_pressure;Samples;Min_cycle;Max_cycle;Signal;HPM_P1;HPM_P2
2021/07/05 00:00:10;;;;;;;5.80;3.85;;;;;;;19.25;66.12;100468.56;5013689;28;20030;-74
2021/07/05 00:02:35;;;;;;;6.68;3.97;;;;;;;19.26;66.02;100465.09;5030188;28;20025;-73
2021/07/05 00:05:01;;;;;;;6.53;4.43;;;;;;;19.24;66.35;100459.00;5013055;28;20360;-73
2021/07/05 00:07:26;;;;;;;6.32;4.35;;;;;;;19.24;66.29;100466.81;5013342;28;20103;-73
2021/07/05 00:09:52;;;;;;;8.70;4.45;;;;;;;19.27;66.35;100468.59;5012121;28;20034;-74
2021/07/05 00:12:18;;;;;;;6.63;5.07;;;;;;;19.29;66.58;100466.00;5006754;28;20058;-74
2021/07/05 00:14:43;;;;;;;5.90;4.13;;;;;;;19.27;66.57;100469.47;5007661;28;20061;-74
2021/07/05 00:17:08;;;;;;;9.38;5.45;;;;;;;19.27;66.74;100464.25;5014018;28;20087;-73
2021/07/05 00:19:34;;;;;;;7.38;4.35;;;;;;;19.29;67.21;100471.22;5027665;28;20103;-74
2021/07/05 00:21:59;;;;;;;7.28;4.95;;;;;;;19.29;66.85;100471.22;5015679;28;20045;-73
2021/07/05 00:24:25;;;;;;;8.18;4.28;;;;;;;19.26;66.81;100466.84;5014470;28;20033;-73
2021/07/05 00:26:50;;;;;;;5.03;4.25;;;;;;;19.25;67.39;100463.34;5018286;28;20064;-73
2021/07/05 00:29:15;;;;;;;5.72;4.43;;;;;;;19.22;67.11;100460.72;5025437;28;20025;-74
2021/07/05 00:31:41;;;;;;;6.13;4.00;;;;;;;19.20;67.35;100464.19;5016503;28;20025;-74
2021/07/05 00:34:07;;;;;;;9.30;4.18;;;;;;;19.23;67.24;100462.47;4999611;28;20490;-73
2021/07/05 00:36:32;;;;;;;6.25;5.05;;;;;;;19.24;67.60;100459.00;5032504;28;20021;-73
2021/07/05 00:38:58;;;;;;;8.43;5.38;;;;;;;19.20;67.65;100457.22;5033384;28;20121;-73
2021/07/05 00:41:24;;;;;;;7.82;5.00;;;;;;;19.20;67.58;100452.00;5024343;28;20189;-73
2021/07/05 00:43:50;;;;;;;7.15;5.30;;;;;;;19.18;68.01;100458.94;5016315;28;20032;-73
2021/07/05 00:46:16;;;;;;;7.63;5.18;;;;;;;19.13;68.27;100458.00;5032151;28;20060;-73
2021/07/05 00:48:41;;;;;;;9.75;5.40;;;;;;;19.12;68.39;100456.25;5029260;28;20022;-72
2021/07/05 00:51:08;;;;;;;5.57;4.13;;;;;;;19.09;67.69;100451.88;4999213;28;20025;-73
2021/07/05 00:53:34;;;;;;;7.03;4.15;;;;;;;19.07;67.95;100456.19;5029030;28;20116;-73
2021/07/05 00:55:59;;;;;;;5.88;3.60;;;;;;;19.06;67.70;100464.03;5029512;28;20024;-73
2021/07/05 00:58:25;;;;;;;6.38;4.38;;;;;;;19.01;67.70;100461.34;5025521;28;20482;-73
2021/07/05 01:00:51;;;;;;;5.57;4.32;;;;;;;18.95;68.11;100451.69;4996290;28;20469;-73
2021/07/05 01:03:16;;;;;;;5.65;3.95;;;;;;;18.93;68.11;100461.22;5029345;28;20037;-73
2021/07/05 01:05:42;;;;;;;7.93;4.07;;;;;;;18.91;68.20;100449.91;5014124;28;20026;-73
2021/07/05 01:08:08;;;;;;;4.60;3.70;;;;;;;18.94;68.52;100449.03;5028714;28;20026;-73
2021/07/05 01:10:34;;;;;;;8.05;4.05;;;;;;;18.96;67.67;100456.06;5028241;28;20541;-73
2021/07/05 01:13:00;;;;;;;5.30;3.97;;;;;;;18.92;68.05;100446.44;5014001;28;20057;-73
2021/07/05 01:15:28;;;;;;;6.07;4.40;;;;;;;18.88;67.97;100435.94;5031930;28;20558;-73
2021/07/05 01:17:55;;;;;;;8.23;4.75;;;;;;;18.92;67.90;100443.81;5014719;28;20092;-73
2021/07/05 01:20:25;;;;;;;6.13;4.47;;;;;;;18.91;67.93;100443.78;5030647;28;20037;-74
2021/07/05 01:22:51;;;;;;;6.43;3.97;;;;;;;18.92;68.00;100442.94;5023508;28;20030;-74
2021/07/05 01:25:20;;;;;;;7.35;4.13;;;;;;;18.91;68.54;100434.25;5028811;28;20080;-73
2021/07/05 01:27:47;;;;;;;8.40;4.05;;;;;;;18.92;68.08;100446.44;5006921;28;20482;-74
2021/07/05 01:30:16;;;;;;;5.97;4.65;;;;;;;18.90;68.50;100442.94;5015289;28;20441;-73
2021/07/05 01:32:42;;;;;;;;;;;;;;;18.90;68.15;100442.03;5015877;28;20422;-73
2021/07/05 01:35:07;;;;;;;5.97;4.47;;;;;;;18.84;68.53;100437.63;5015333;28;20008;-73
2021/07/05 01:37:33;;;;;;;8.18;4.80;;;;;;;18.85;68.62;100439.41;5002506;28;20277;-73
2021/07/05 01:39:59;;;;;;;9.57;5.18;;;;;;;18.86;68.31;100435.94;5029423;28;20064;-73
2021/07/05 01:42:25;;;;;;;6.65;5.43;;;;;;;18.82;68.87;100429.78;5002241;28;20030;-73
2021/07/05 01:44:50;;;;;;;5.90;4.85;;;;;;;18.83;68.58;100434.13;5015298;28;20026;-72
2021/07/05 01:47:16;;;;;;;7.95;5.85;;;;;;;18.82;68.87;100429.78;5022084;28;20046;-73
2021/07/05 01:49:45;;;;;;;9.15;5.57;;;;;;;18.83;69.02;100425.44;5025786;28;20033;-73
2021/07/05 01:52:12;;;;;;;10.10;5.72;;;;;;;18.42;70.52;100434.50;5014819;28;20033;-73
2021/07/05 01:54:38;;;;;;;7.47;5.97;;;;;;;18.26;71.28;100433.41;5027855;28;20030;-73
2021/07/05 01:57:05;;;;;;;10.00;5.72;;;;;;;18.18;71.13;100429.81;5013915;28;20033;-73
2021/07/05 01:59:30;;;;;;;10.10;6.40;;;;;;;18.24;71.56;100429.88;4989748;28;20116;-73
2021/07/05 02:01:56;;;;;;;8.52;5.60;;;;;;;18.35;70.84;100423.09;5031188;28;20025;-73
2021/07/05 02:04:25;;;;;;;6.50;5.15;;;;;;;18.45;70.50;100428.44;5032793;28;20057;-72
2021/07/05 02:06:51;;;;;;;7.25;5.28;;;;;;;18.49;70.01;100419.78;5030686;28;20474;-73
2021/07/05 02:09:17;;;;;;;7.55;5.03;;;;;;;18.54;70.22;100428.56;5021133;28;20052;-72
2021/07/05 02:11:43;;;;;;;8.73;5.55;;;;;;;18.57;70.03;100426.00;5031439;28;20359;-73
2021/07/05 02:14:08;;;;;;;5.65;4.35;;;;;;;18.56;70.10;100426.88;5015048;28;20021;-73
2021/07/05 02:16:35;;;;;;;5.85;4.60;;;;;;;18.57;69.99;100433.84;5004519;28;20029;-73
2021/07/05 02:19:03;;;;;;;8.32;5.00;;;;;;;18.57;69.91;100428.63;4998112;28;20465;-73
2021/07/05 02:21:28;;;;;;;7.55;5.50;;;;;;;18.57;69.76;100418.19;5012324;28;20105;-73
2021/07/05 02:23:54;;;;;;;8.23;5.10;;;;;;;18.54;70.20;100429.44;5030405;28;20116;-72
2021/07/05 02:26:19;;;;;;;6.50;4.72;;;;;;;18.50;70.05;100426.75;5011306;28;20029;-72
2021/07/05 02:28:45;;;;;;;11.50;5.00;;;;;;;18.51;70.03;100438.94;5014249;28;20027;-72
2021/07/05 02:31:11;;;;;;;8.45;5.03;;;;;;;18.51;69.94;100433.72;5029292;28;20024;-72
2021/07/05 02:33:37;;;;;;;7.15;4.70;;;;;;;18.49;69.83;100436.31;5004440;28;20475;-72
2021/07/05 02:36:07;;;;;;;8.25;4.65;;;;;;;18.46;69.98;100425.84;5004400;28;20390;-72
2021/07/05 02:38:34;;;;;;;5.13;4.63;;;;;;;18.45;70.09;100418.00;5019327;28;20080;-73
2021/07/05 02:41:01;;;;;;;6.30;4.40;;;;;;;18.46;70.27;100430.19;5012546;28;20026;-73
2021/07/05 02:43:27;;;;;;;5.60;4.63;;;;;;;18.40;70.15;100421.44;5031786;28;20025;-72
2021/07/05 02:45:54;;;;;;;7.35;5.05;;;;;;;18.40;70.00;100421.44;5014204;28;20032;-72
2021/07/05 02:48:23;;;;;;;8.68;5.10;;;;;;;18.38;69.95;100423.13;5023643;28;20083;-72
2021/07/05 02:50:54;;;;;;;8.30;4.88;;;;;;;18.34;70.19;100426.56;5015880;28;20032;-72
2021/07/05 02:53:20;;;;;;;8.23;5.00;;;;;;;18.34;70.41;100430.91;5030806;28;20036;-72
2021/07/05 02:55:46;;;;;;;7.43;5.00;;;;;;;18.29;70.61;100436.03;5002211;28;20044;-72
2021/07/05 02:58:12;;;;;;;6.68;4.57;;;;;;;18.30;70.10;100440.41;5008596;28;20030;-73
2021/07/05 03:00:43;;;;;;;6.32;4.60;;;;;;;18.31;70.40;100434.34;5026366;28;20413;-72
2021/07/05 03:03:08;;;;;;;6.70;5.07;;;;;;;18.30;70.08;100434.31;5007115;28;20033;-72
2021/07/05 03:05:34;;;;;;;5.50;4.32;;;;;;;18.30;69.85;100432.59;4991676;28;20386;-73
2021/07/05 03:08:00;;;;;;;7.57;4.80;;;;;;;18.30;70.22;100429.97;5026199;28;20090;-72
2021/07/05 03:10:29;;;;;;;8.15;4.88;;;;;;;18.35;70.52;100435.28;5008514;28;20488;-72
2021/07/05 03:12:56;;;;;;;8.07;4.80;;;;;;;18.35;69.96;100423.09;5007697;28;20143;-72
2021/07/05 03:15:22;;;;;;;5.68;4.75;;;;;;;18.40;69.95;100431.84;5008907;28;20460;-72
2021/07/05 03:17:48;;;;;;;6.50;4.72;;;;;;;18.42;70.11;100431.00;5006400;28;20037;-72
2021/07/05 03:20:16;;;;;;;7.72;5.10;;;;;;;18.45;70.25;100444.06;5025324;28;20384;-73
2021/07/05 03:22:44;;;;;;;8.95;5.25;;;;;;;18.45;69.60;100444.06;5007850;28;20033;-72
2021/07/05 03:25:11;;;;;;;11.60;5.53;;;;;;;18.30;70.84;100437.78;5026401;28;20108;-72
2021/07/05 03:27:38;;;;;;;10.60;5.60;;;;;;;18.35;70.71;100438.75;5024321;28;20125;-72
2021/07/05 03:30:05;;;;;;;6.40;5.05;;;;;;;18.43;70.43;100451.00;5023742;28;20021;-72
2021/07/05 03:32:30;;;;;;;7.68;4.93;;;;;;;18.48;70.29;100446.72;5009561;28;20021;-73
2021/07/05 03:34:56;;;;;;;8.10;5.38;;;;;;;18.39;70.34;100435.31;5007099;28;20031;-72
2021/07/05 03:37:21;;;;;;;8.85;5.70;;;;;;;18.16;71.51;100441.94;5025765;28;20120;-72
2021/07/05 03:39:46;;;;;;;6.95;5.30;;;;;;;18.23;71.12;100438.56;5006128;28;20104;-72
2021/07/05 03:42:12;;;;;;;6.38;5.38;;;;;;;18.32;71.09;100436.09;5008044;28;20072;-72
2021/07/05 03:44:37;;;;;;;9.48;5.28;;;;;;;18.35;70.99;100433.53;5008740;28;20029;-72
2021/07/05 03:47:03;;;;;;;9.88;5.65;;;;;;;18.39;70.69;100422.28;5009507;28;20025;-72
2021/07/05 03:49:28;;;;;;;7.65;5.30;;;;;;;18.45;70.41;100424.09;5006706;28;20030;-72
2021/07/05 03:51:53;;;;;;;8.60;5.40;;;;;;;18.36;71.03;100423.97;5023041;28;20040;-72
2021/07/05 03:54:19;;;;;;;7.65;5.22;;;;;;;18.45;70.66;100420.59;5008322;28;20040;-72
2021/07/05 03:56:45;;;;;;;6.38;4.80;;;;;;;18.48;70.52;100418.94;4991679;28;20025;-73
2021/07/05 03:59:10;;;;;;;7.68;5.18;;;;;;;18.45;70.72;100431.03;5005748;28;20033;-72
2021/07/05 04:01:36;;;;;;;6.57;4.70;;;;;;;18.53;70.69;100435.50;5005520;28;20101;-73
2021/07/05 04:04:02;;;;;;;8.35;5.18;;;;;;;18.31;71.41;100431.72;5008146;28;20029;-73
2021/07/05 04:06:28;;;;;;;8.00;4.88;;;;;;;18.27;71.44;100429.94;5005967;28;20022;-73
2021/07/05 04:08:56;;;;;;;5.65;4.70;;;;;;;18.37;71.37;100442.25;5024364;28;20477;-72
2021/07/05 04:11:22;;;;;;;6.35;5.20;;;;;;;18.44;70.75;100444.94;5024255;28;20112;-72
2021/07/05 04:13:48;;;;;;;10.55;5.18;;;;;;;18.27;72.02;100445.56;5024200;28;20076;-72
2021/07/05 04:16:14;;;;;;;8.13;5.10;;;;;;;18.32;72.27;100443.91;5024191;28;20101;-72
2021/07/05 04:18:39;;;;;;;8.57;5.05;;;;;;;18.38;71.60;100441.38;5023302;28;20121;-72
2021/07/05 04:21:05;;;;;;;7.47;5.20;;;;;;;18.48;72.26;100446.72;5005286;28;20029;-72
2021/07/05 04:23:30;;;;;;;6.53;5.05;;;;;;;18.38;72.29;100443.13;5025925;28;20471;-72
2021/07/05 04:25:56;;;;;;;7.35;5.18;;;;;;;18.41;73.59;100448.38;5025069;28;20053;-72
2021/07/05 04:28:22;;;;;;;13.55;5.20;;;;;;;18.48;74.00;100459.75;5022853;28;20025;-72
2021/07/05 04:30:49;;;;;;;7.72;5.22;;;;;;;18.49;74.82;100451.09;5023178;28;20018;-73
2021/07/05 04:33:15;;;;;;;7.95;5.90;;;;;;;18.52;75.47;100443.31;5004750;28;20495;-72
2021/07/05 04:35:40;;;;;;;9.38;5.95;;;;;;;18.55;75.04;100456.38;5015853;28;20025;-73
2021/07/05 04:38:06;;;;;;;9.90;6.18;;;;;;;18.44;74.13;100455.38;5005901;28;20474;-74
2021/07/05 04:40:35;;;;;;;7.50;5.00;;;;;;;18.48;74.41;100460.66;5014976;28;20025;-73
2021/07/05 04:43:01;;;;;;;10.18;6.03;;;;;;;18.49;74.43;100456.31;5016808;28;20025;-74
2021/07/05 04:45:28;;;;;;;7.70;5.45;;;;;;;18.51;75.04;100449.38;5034317;28;20048;-74
2021/07/05 04:47:55;;;;;;;9.32;6.95;;;;;;;18.51;74.96;100451.97;5016385;28;20367;-74
2021/07/05 04:50:21;;;;;;;10.77;6.75;;;;;;;18.52;74.57;100456.34;5020977;28;20053;-73
2021/07/05 04:52:48;;;;;;;11.48;8.43;;;;;;;18.39;74.84;100450.09;4999654;28;20386;-74
2021/07/05 04:55:16;;;;;;;12.88;9.43;;;;;;;18.38;75.77;100448.34;5014037;28;20036;-74
2021/07/05 04:57:42;;;;;;;16.05;8.93;;;;;;;18.29;76.11;100441.25;5015289;28;20029;-73
2021/07/05 05:00:12;;;;;;;18.67;10.15;;;;;;;18.21;77.02;100446.38;5031953;28;20030;-73
2021/07/05 05:02:38;;;;;;;14.32;11.00;;;;;;;18.23;77.47;100444.66;4999789;28;20038;-74
2021/07/05 05:05:08;;;;;;;16.75;10.80;;;;;;;18.36;77.24;100450.91;5013411;28;20542;-74
2021/07/05 05:07:33;;;;;;;16.83;9.63;;;;;;;18.43;76.33;100445.78;5009941;28;20471;-73
2021/07/05 05:10:02;;;;;;;13.02;9.27;;;;;;;18.47;76.09;100442.38;5028226;28;20037;-73
2021/07/05 05:12:28;;;;;;;14.05;10.00;;;;;;;18.25;77.21;100436.84;5033519;28;20028;-74
2021/07/05 05:14:54;;;;;;;13.68;8.65;;;;;;;18.43;76.96;100440.56;5031938;28;20108;-73
2021/07/05 05:17:20;;;;;;;17.17;8.88;;;;;;;18.50;77.52;100426.75;5014633;28;20049;-74
2021/07/05 05:19:46;;;;;;;12.30;9.52;;;;;;;18.32;77.31;100428.25;5015093;28;20507;-74
2021/07/05 05:22:12;;;;;;;15.40;10.00;;;;;;;18.35;77.44;100433.53;5032149;28;20033;-74
2021/07/05 05:24:38;;;;;;;12.82;10.20;;;;;;;18.40;77.65;100426.63;5015619;28;20032;-74
2021/07/05 05:27:04;;;;;;;15.80;10.50;;;;;;;18.47;77.18;100421.50;5032294;28;20033;-74
2021/07/05 05:29:29;;;;;;;14.80;10.68;;;;;;;18.54;77.40;100428.56;5015124;28;20034;-74
2021/07/05 05:31:55;;;;;;;14.45;10.30;;;;;;;18.64;77.37;100425.22;5010085;28;20301;-74
2021/07/05 05:34:21;;;;;;;17.25;11.73;;;;;;;18.58;76.91;100435.59;4995886;28;20072;-74
2021/07/05 05:36:47;;;;;;;16.45;11.50;;;;;;;18.47;77.57;100432.81;5015540;28;20060;-74
2021/07/05 05:39:13;;;;;;;13.27;10.75;;;;;;;18.50;77.49;100438.09;5006436;28;20111;-74
2021/07/05 05:41:38;;;;;;;19.33;11.52;;;;;;;18.54;77.00;100436.38;5013401;28;20081;-74
2021/07/05 05:44:04;;;;;;;15.48;10.80;;;;;;;18.58;77.42;100427.75;5013873;28;20056;-74
2021/07/05 05:46:32;;;;;;;18.83;12.77;;;;;;;18.66;77.20;100433.97;5014724;28;20025;-74
2021/07/05 05:49:00;;;;;;;16.90;11.57;;;;;;;18.37;77.62;100437.03;5012633;28;20043;-74
2021/07/05 05:51:31;;;;;;;15.50;12.00;;;;;;;18.47;77.80;100431.94;5002333;28;20029;-74
2021/07/05 05:54:01;;;;;;;18.00;12.60;;;;;;;18.43;77.99;100430.13;5013821;28;20029;-74
2021/07/05 05:56:27;;;;;;;;;;;;;;;18.57;77.77;100439.06;5013896;28;20504;-74
2021/07/05 05:58:54;;;;;;;17.73;12.70;;;;;;;18.65;77.36;100442.63;5012250;28;20306;-74
2021/07/05 06:01:20;;;;;;;16.33;11.85;;;;;;;18.56;78.18;100439.91;5021307;28;20554;-74
2021/07/05 06:03:45;;;;;;;15.52;11.80;;;;;;;18.51;77.65;100438.94;5027465;28;20026;-74
2021/07/05 06:06:10;;;;;;;16.42;12.32;;;;;;;18.60;77.75;100443.41;5008377;28;20034;-74
2021/07/05 06:08:36;;;;;;;17.23;13.05;;;;;;;18.38;77.74;100443.13;5016126;28;20622;-75
2021/07/05 06:11:01;;;;;;;17.50;12.10;;;;;;;18.45;77.67;100444.06;5031281;28;20021;-74
2021/07/05 06:13:27;;;;;;;19.65;13.10;;;;;;;18.32;77.90;100449.13;5028504;28;20064;-74
2021/07/05 06:15:53;;;;;;;16.50;12.63;;;;;;;18.31;78.48;100447.38;5018885;28;20111;-74
2021/07/05 06:18:18;;;;;;;18.27;11.43;;;;;;;18.43;78.83;100453.59;5033189;28;20061;-74
2021/07/05 06:20:43;;;;;;;17.45;11.48;;;;;;;18.46;78.02;100446.72;4999963;28;20545;-73
2021/07/05 06:23:26;;;;;;;16.50;12.88;;;;;;;18.59;77.86;100447.78;5026309;28;20434;-74
2021/07/05 06:25:53;;;;;;;14.60;11.95;;;;;;;18.54;77.32;100444.19;5000201;28;20026;-73
2021/07/05 06:28:20;;;;;;;15.32;11.43;;;;;;;18.64;77.98;100446.09;5009867;28;20091;-74
2021/07/05 06:30:46;;;;;;;16.98;12.25;;;;;;;18.51;78.79;100451.97;4999129;28;20068;-73
2021/07/05 06:33:13;;;;;;;15.40;12.02;;;;;;;18.65;78.08;100452.19;5017024;28;20108;-73
2021/07/05 06:35:40;;;;;;;13.63;11.55;;;;;;;18.76;77.70;100449.72;4999290;28;20088;-75
2021/07/05 06:38:05;;;;;;;14.45;11.70;;;;;;;18.33;78.35;100450.00;4998522;28;20030;-74
2021/07/05 06:40:31;;;;;;;15.07;12.02;;;;;;;18.54;77.52;100450.31;5025271;28;20454;-76
2021/07/05 06:42:58;;;;;;;15.25;11.95;;;;;;;18.60;77.58;100446.91;4998618;28;20471;-73
2021/07/05 06:45:24;;;;;;;15.75;12.00;;;;;;;18.62;76.68;100437.38;4997414;28;20018;-72
2021/07/05 06:47:49;;;;;;;20.15;12.10;;;;;;;18.60;76.75;100438.19;5034900;28;20025;-73
2021/07/05 06:50:15;;;;;;;20.05;13.98;;;;;;;18.57;77.64;100449.50;5025401;28;20018;-72
2021/07/05 06:52:40;;;;;;;15.52;12.60;;;;;;;18.67;76.83;100440.91;5009323;28;20052;-72
2021/07/05 06:55:06;;;;;;;19.48;12.88;;;;;;;18.59;77.38;100442.56;5025495;28;20474;-72
2021/07/05 06:57:35;;;;;;;15.55;12.52;;;;;;;18.69;78.26;100449.66;5027154;28;20121;-72
2021/07/05 07:00:08;;;;;;;15.90;12.57;;;;;;;18.60;76.97;100449.53;5007463;28;20473;-72
2021/07/05 07:02:33;;;;;;;15.60;12.20;;;;;;;18.74;77.67;100451.44;5009191;28;20083;-72
2021/07/05 07:04:59;;;;;;;18.92;13.13;;;;;;;18.80;76.92;100447.16;5008510;28;20046;-72
2021/07/05 07:07:25;;;;;;;23.42;15.10;;;;;;;18.82;76.14;100439.34;5010878;28;20064;-72
2021/07/05 07:09:50;;;;;;;20.45;16.52;;;;;;;18.81;75.05;100432.38;5011210;28;20112;-76
2021/07/05 07:12:16;;;;;;;18.90;15.70;;;;;;;18.91;75.10;100429.03;5006026;28;20032;-77
2021/07/05 07:14:42;;;;;;;17.13;13.85;;;;;;;19.05;74.87;100436.16;5030856;28;20034;-77
2021/07/05 07:17:13;;;;;;;19.20;13.35;;;;;;;19.02;75.20;100430.91;5009060;28;20505;-77
2021/07/05 07:19:39;;;;;;;17.08;14.05;;;;;;;19.14;73.16;100431.03;5009038;28;20046;-77
2021/07/05 07:22:04;;;;;;;16.35;13.73;;;;;;;19.16;74.00;100439.75;5007101;28;20483;-76
2021/07/05 07:24:32;;;;;;;18.05;14.35;;;;;;;19.21;73.86;100443.28;5005253;28;20045;-77
2021/07/05 07:26:58;;;;;;;17.58;14.50;;;;;;;18.96;72.71;100437.78;4991176;28;20498;-77
2021/07/05 07:29:23;;;;;;;16.75;13.68;;;;;;;19.03;73.31;100443.09;5016909;28;20467;-77
2021/07/05 07:31:49;;;;;;;17.58;13.75;;;;;;;19.08;74.11;100451.84;5011937;28;20033;-77
2021/07/05 07:34:14;;;;;;;16.30;13.88;;;;;;;19.08;73.93;100436.19;5016188;28;20068;-77
2021/07/05 07:36:41;;;;;;;16.55;13.32;;;;;;;19.17;73.24;100441.50;5016602;28;20030;-77
2021/07/05 07:39:11;;;;;;;14.07;12.57;;;;;;;19.16;72.59;100439.75;5009385;28;20057;-76
2021/07/05 07:41:37;;;;;;;13.48;12.07;;;;;;;19.25;71.93;100437.25;5016340;28;20038;-77
2021/07/05 07:44:03;;;;;;;14.80;11.68;;;;;;;19.32;71.40;100434.69;5000248;28;20075;-77
2021/07/05 07:46:29;;;;;;;12.35;10.98;;;;;;;19.44;71.88;100434.81;5003817;28;20474;-77
2021/07/05 07:48:55;;;;;;;12.70;10.88;;;;;;;19.54;71.30;100431.41;5011849;28;20380;-76
2021/07/05 07:51:20;;;;;;;12.40;10.68;;;;;;;19.49;71.71;100422.66;4994403;28;20033;-76
2021/07/05 07:53:46;;;;;;;16.48;11.70;;;;;;;19.64;70.49;100423.69;5008573;28;20029;-77
2021/07/05 07:56:11;;;;;;;15.32;10.32;;;;;;;19.37;70.05;100417.34;5025072;28;20569;-77
2021/07/05 07:58:37;;;;;;;11.40;9.93;;;;;;;19.39;70.72;100415.63;5008302;28;20029;-77
2021/07/05 08:01:03;;;;;;;12.60;10.00;;;;;;;19.55;67.63;100417.50;5025296;28;20026;-76
2021/07/05 08:03:29;;;;;;;12.50;10.02;;;;;;;19.62;68.92;100428.03;5009252;28;20076;-76
2021/07/05 08:05:55;;;;;;;12.85;9.82;;;;;;;19.52;68.79;100427.91;5008413;28;20137;-76
2021/07/05 08:08:21;;;;;;;13.20;9.73;;;;;;;19.45;68.16;100420.91;4990509;28;20395;-77
2021/07/05 08:10:47;;;;;;;12.73;9.15;;;;;;;19.48;69.34;100426.13;5021789;28;20112;-82
2021/07/05 08:13:13;;;;;;;12.65;9.95;;;;;;;19.30;69.55;100418.13;5005884;28;20456;-72
2021/07/05 08:15:38;;;;;;;13.13;10.25;;;;;;;19.32;68.78;100429.47;5029139;28;20036;-75
2021/07/05 08:18:04;;;;;;;11.50;9.68;;;;;;;19.43;68.45;100430.44;5008707;28;20528;-72
2021/07/05 08:20:29;;;;;;;12.88;10.45;;;;;;;19.30;68.52;100431.19;5023700;28;20021;-73
2021/07/05 08:22:56;;;;;;;13.90;9.45;;;;;;;19.51;69.92;100434.00;5023596;28;20022;-72
2021/07/05 08:25:26;;;;;;;13.98;9.75;;;;;;;19.69;68.43;100435.06;5002182;28;20060;-72
2021/07/05 08:27:53;;;;;;;15.88;10.43;;;;;;;19.93;68.89;100438.75;4997028;28;20025;-72
2021/07/05 08:30:20;;;;;;;11.25;9.50;;;;;;;19.92;65.44;100437.00;5007037;28;20109;-72
2021/07/05 08:32:47;;;;;;;10.60;9.43;;;;;;;19.72;67.01;100435.06;5014800;28;20027;-72
2021/07/05 08:35:13;;;;;;;9.35;8.07;;;;;;;19.90;65.79;100434.38;5024054;28;20120;-73
2021/07/05 08:37:38;;;;;;;9.70;8.70;;;;;;;19.97;65.47;100424.84;5005400;28;20057;-72
2021/07/05 08:40:07;;;;;;;10.75;9.23;;;;;;;19.81;64.33;100429.94;5006345;28;20534;-72
2021/07/05 08:42:34;;;;;;;12.63;10.15;;;;;;;19.87;63.67;100428.22;5005934;28;20060;-71
2021/07/05 08:45:00;;;;;;;10.25;8.05;;;;;;;20.17;64.27;100429.31;5023463;28;20355;-72
2021/07/05 08:47:27;;;;;;;11.80;10.60;;;;;;;19.96;63.16;100418.72;5006693;28;20505;-71
2021/07/05 08:49:52;;;;;;;14.55;10.07;;;;;;;19.97;63.95;100414.38;5008459;28;20033;-72
2021/07/05 08:52:18;;;;;;;10.75;9.30;;;;;;;20.27;64.31;100418.06;5022812;28;20030;-71
2021/07/05 08:54:44;;;;;;;10.38;9.18;;;;;;;20.10;62.96;100415.31;5021634;28;20122;-72
2021/07/05 08:57:27;;;;;;;12.20;10.25;;;;;;;20.21;63.31;100423.25;5022561;28;20494;-72
2021/07/05 08:59:53;;;;;;;10.73;9.63;;;;;;;20.17;65.28;100422.38;5023160;28;20021;-72
2021/07/05 09:02:20;;;;;;;12.80;10.77;;;;;;;20.05;65.69;100423.16;5024392;28;20100;-73
2021/07/05 09:04:54;;;;;;;11.15;10.02;;;;;;;20.14;65.34;100423.22;5023115;28;20021;-70
2021/07/05 09:07:20;;;;;;;18.23;10.35;;;;;;;20.31;64.40;100430.28;5004645;28;20575;-71
2021/07/05 09:10:06;;;;;;;12.00;10.65;;;;;;;20.18;63.26;100433.69;5013754;28;20018;-72
2021/07/05 09:12:33;;;;;;;15.85;11.20;;;;;;;20.31;63.34;100430.28;5025296;28;20446;-72
2021/07/05 09:15:05;;;;;;;10.52;9.43;;;;;;;20.39;62.95;100428.56;5000677;28;20040;-72
2021/07/05 09:17:35;;;;;;;10.32;8.38;;;;;;;20.34;62.68;100432.91;5023379;28;20049;-71
2021/07/05 09:20:03;;;;;;;13.23;8.38;;;;;;;20.29;63.36;100421.53;5024350;28;20482;-71
2021/07/05 09:22:29;;;;;;;8.75;7.18;;;;;;;20.54;62.67;100429.50;5016568;28;20501;-71
2021/07/05 09:24:57;;;;;;;9.63;7.63;;;;;;;20.55;62.71;100423.41;5023119;28;20048;-71
2021/07/05 09:27:32;;;;;;;12.67;6.70;;;;;;;20.73;61.54;100422.63;5005150;28;20033;-73
2021/07/05 09:30:09;;;;;;;9.23;6.25;;;;;;;21.06;61.52;100414.91;5005590;28;20071;-72
2021/07/05 09:32:35;;;;;;;10.60;7.05;;;;;;;21.05;60.51;100413.16;5008439;28;20418;-71
2021/07/05 09:35:19;;;;;;;8.43;7.05;;;;;;;21.25;59.41;100415.84;5003734;28;20025;-71
2021/07/05 09:38:00;;;;;;;11.80;6.82;;;;;;;21.45;59.26;100416.72;5019890;28;20018;-71
2021/07/05 09:40:28;;;;;;;9.07;7.32;;;;;;;21.33;60.00;100418.44;5021965;28;20057;-71
2021/07/05 09:42:54;;;;;;;9.20;7.63;;;;;;;21.59;57.91;100428.97;5002182;28;20029;-72
2021/07/05 09:45:22;;;;;;;10.25;6.30;;;;;;;26.56;46.08;100425.97;5023539;28;20564;-73
2021/07/05 09:48:15;;;;;;;9.77;6.22;;;;;;;29.04;37.52;100419.72;5020173;28;20021;-75
2021/07/05 09:50:40;;;;;;;7.70;5.90;;;;;;;25.57;44.95;100420.75;5011015;28;20441;-74
2021/07/05 09:53:29;;;;;;;8.65;6.55;;;;;;;29.83;37.99;100416.28;5011465;28;20022;-73
2021/07/05 09:55:55;;;;;;;6.65;4.90;;;;;;;28.68;40.57;100419.91;5012831;28;20042;-74
2021/07/05 09:58:33;;;;;;;7.90;5.47;;;;;;;27.57;43.41;100422.00;4999721;28;20572;-74
2021/07/05 10:00:58;;;;;;;10.48;5.95;;;;;;;25.39;47.98;100425.34;5015869;28;20075;-74
2021/07/05 10:03:36;;;;;;;6.72;5.20;;;;;;;26.66;46.28;100422.25;5005659;28;20026;-75
2021/07/05 10:06:18;;;;;;;9.63;6.07;;;;;;;24.08;50.47;100426.16;5006020;28;20029;-73
2021/07/05 10:08:46;;;;;;;8.25;6.03;;;;;;;23.08;52.83;100419.88;5004597;28;20034;-72
2021/07/05 10:11:23;;;;;;;11.90;6.78;;;;;;;23.15;52.23;100411.06;5006626;28;20481;-75
2021/07/05 10:13:50;;;;;;;12.70;6.20;;;;;;;25.26;46.69;100419.44;5000432;28;20029;-75
2021/07/05 10:16:16;;;;;;;7.68;6.00;;;;;;;25.31;46.19;100420.22;5002794;28;20112;-72
2021/07/05 10:18:43;;;;;;;6.22;5.63;;;;;;;24.35;49.66;100429.34;5011891;28;20050;-74
2021/07/05 10:21:09;;;;;;;9.88;5.10;;;;;;;23.87;52.25;100425.44;5022313;28;20045;-73
2021/07/05 10:23:35;;;;;;;9.57;6.55;;;;;;;23.79;51.04;100414.09;5025490;28;20055;-76
2021/07/05 10:26:01;;;;;;;6.78;6.03;;;;;;;23.70;50.45;100422.06;5000724;28;20037;-75
2021/07/05 10:28:27;;;;;;;10.07;5.53;;;;;;;23.22;51.04;100423.28;5027551;28;20036;-74
2021/07/05 10:30:53;;;;;;;7.32;5.25;;;;;;;22.91;52.20;100413.81;5007594;28;20022;-75
2021/07/05 10:33:20;;;;;;;6.18;5.28;;;;;;;22.63;53.54;100425.34;5011628;28;20037;-72
2021/07/05 10:35:52;;;;;;;6.93;6.20;;;;;;;22.29;53.60;100434.16;5022400;28;20032;-75
2021/07/05 10:38:53;;;;;;;9.10;6.05;;;;;;;21.89;55.98;100429.84;4998585;28;20037;-74
2021/07/05 10:41:21;;;;;;;7.30;5.80;;;;;;;22.06;56.98;100432.47;5016991;28;20052;-72
2021/07/05 10:43:53;;;;;;;8.80;6.43;;;;;;;21.98;56.43;100428.97;5022780;28;20022;-75
2021/07/05 10:46:50;;;;;;;7.18;6.47;;;;;;;22.27;56.41;100435.91;4998434;28;20033;-76
2021/07/05 10:49:27;;;;;;;9.70;6.72;;;;;;;22.40;55.10;100447.25;4995867;28;20518;-74
2021/07/05 10:51:56;;;;;;;8.32;6.25;;;;;;;22.62;54.29;100445.44;5010831;28;20032;-74
2021/07/05 10:55:00;;;;;;;7.28;6.00;;;;;;;23.13;53.73;100433.84;5013560;28;20057;-74
2021/07/05 10:57:29;;;;;;;8.52;5.63;;;;;;;23.48;53.28;100438.00;4969434;28;20125;-76
2021/07/05 10:59:54;;;;;;;7.82;5.55;;;;;;;23.63;50.62;100445.78;4969976;28;20073;-76
2021/07/05 11:02:46;;;;;;;7.63;4.50;;;;;;;23.36;50.44;100443.34;4963124;28;20057;-75
2021/07/05 11:05:29;;;;;;;6.50;4.80;;;;;;;23.18;49.92;100432.06;4999927;28;20347;-75
2021/07/05 11:07:55;;;;;;;6.47;5.32;;;;;;;22.81;51.11;100437.53;5031587;28;20022;-73
2021/07/05 11:10:27;;;;;;;6.45;5.75;;;;;;;22.54;52.96;100439.34;5002405;28;20029;-74
2021/07/05 11:13:04;;;;;;;4.82;3.90;;;;;;;22.72;52.50;100435.81;5000937;28;20013;-74
2021/07/05 11:15:46;;;;;;;6.93;4.85;;;;;;;22.87;52.79;100442.75;5017447;28;20032;-74
2021/07/05 11:18:42;;;;;;;7.07;5.32;;;;;;;22.71;51.82;100442.78;5018296;28;20061;-74
2021/07/05 11:21:23;;;;;;;6.60;5.07;;;;;;;22.63;52.37;100431.44;4998422;28;20132;-74